PH-0047 weather

iSquare Heliport
Pasig, Philippines

Public forecast

Using degrees Celsius for public forecast. Weather courtesy of forecast.io.

METAR (pilot weather report)

Closest report is Ninoy Aquino International Airport, 5.3 nm (9.8 km) SSW. Retrieved 2019/07/24 01:00 UTC (24 minutes ago):

RPLL 240100Z 20002KT 9000 FEW023 SCT100 SCT300 29/24 Q1010 NOSIG RMK A2983

TAF (pilot weather forecast)

Forecast is more than 12 hours old.

Closest forecast is Ninoy Aquino International Airport, 5.3 nm (9.8 km) SSW. Retrieved 2019/07/23 00:00 UTC (1 day ago):

TAF RPLL 232300Z 2400/2506 26007KT 9999 FEW023 SCT100 BKN300 TX33/2406Z TN27/2421Z TEMPO 2400/2406 FEW022CB SCT023 BKN100 TEMPO 2408/2414 7000 TSRA SCT022CB OVC090